createdAt,value
2022-09-23T00:00:54.088Z,99627.00
2022-09-23T00:01:54.138Z,99626.00
2022-09-23T00:02:54.169Z,99629.00
2022-09-23T00:03:54.125Z,99628.00
2022-09-23T00:04:54.136Z,99634.00
2022-09-23T00:05:54.156Z,99636.00
2022-09-23T00:06:54.148Z,99637.00
2022-09-23T00:07:54.176Z,99640.00
2022-09-23T00:08:54.190Z,99633.00
2022-09-23T00:09:54.225Z,99636.00
2022-09-23T00:10:54.250Z,99631.00
2022-09-23T00:11:54.261Z,99633.00
2022-09-23T00:12:54.315Z,99630.00
2022-09-23T00:13:54.287Z,99627.00
2022-09-23T00:14:54.300Z,99633.00
2022-09-23T00:15:54.341Z,99629.00
2022-09-23T00:16:54.429Z,99633.00
2022-09-23T00:17:54.356Z,99625.00
2022-09-23T00:18:54.334Z,99628.00
2022-09-23T00:19:54.358Z,99625.00
2022-09-23T00:20:54.406Z,99631.00
2022-09-23T00:21:54.393Z,99626.00
2022-09-23T00:22:54.398Z,99631.00
2022-09-23T00:23:54.449Z,99630.00
2022-09-23T00:24:54.435Z,99627.00
2022-09-23T00:25:54.463Z,99631.00
2022-09-23T00:26:54.483Z,99631.00
2022-09-23T00:27:54.518Z,99630.00
2022-09-23T00:28:54.542Z,99634.00
2022-09-23T00:29:54.526Z,99628.00
2022-09-23T00:30:54.581Z,99631.00
2022-09-23T00:31:54.584Z,99632.00
2022-09-23T00:32:54.606Z,99635.00
2022-09-23T00:33:54.635Z,99635.00
2022-09-23T00:34:54.606Z,99635.00
2022-09-23T00:35:54.633Z,99637.00
2022-09-23T00:36:54.652Z,99637.00
2022-09-23T00:37:54.699Z,99633.00
2022-09-23T00:38:54.718Z,99630.00
2022-09-23T00:39:54.711Z,99635.00
2022-09-23T00:40:54.718Z,99636.00
2022-09-23T00:41:54.751Z,99627.00
2022-09-23T00:42:54.772Z,99631.00
2022-09-23T00:43:54.801Z,99632.00
2022-09-23T00:44:54.785Z,99631.00
2022-09-23T00:45:54.868Z,99625.00
2022-09-23T00:46:54.870Z,99627.00
2022-09-23T00:47:54.835Z,99621.00
2022-09-23T00:48:54.863Z,99626.00
2022-09-23T00:49:54.872Z,99624.00
2022-09-23T00:50:54.879Z,99627.00
2022-09-23T00:51:54.948Z,99624.00
2022-09-23T00:52:54.916Z,99623.00
2022-09-23T00:53:54.979Z,99622.00
2022-09-23T00:54:54.938Z,99624.00
2022-09-23T00:55:54.975Z,99626.00
2022-09-23T00:56:54.989Z,99622.00
2022-09-23T00:57:55.014Z,99621.00
2022-09-23T00:58:55.057Z,99618.00
2022-09-23T00:59:55.036Z,99616.00
2022-09-23T01:00:55.108Z,99612.00
2022-09-23T01:01:55.093Z,99609.00
2022-09-23T01:02:55.091Z,99612.00
2022-09-23T01:03:55.136Z,99610.00
2022-09-23T01:04:55.116Z,99615.00
2022-09-23T01:05:55.106Z,99612.00
2022-09-23T01:06:55.116Z,99612.00
2022-09-23T01:07:55.137Z,99607.00
2022-09-23T01:08:55.165Z,99612.00
2022-09-23T01:09:55.195Z,99615.00
2022-09-23T01:10:55.197Z,99618.00
2022-09-23T01:11:55.214Z,99614.00
2022-09-23T01:12:55.177Z,99616.00
2022-09-23T01:13:55.204Z,99614.00
2022-09-23T01:14:55.221Z,99614.00
2022-09-23T01:15:55.271Z,99605.00
2022-09-23T01:16:55.276Z,99608.00
2022-09-23T01:17:55.242Z,99610.00
2022-09-23T01:18:55.250Z,99606.00
2022-09-23T01:19:55.267Z,99603.00
2022-09-23T01:20:55.335Z,99603.00
2022-09-23T01:21:55.286Z,99603.00
2022-09-23T01:22:55.284Z,99598.00
2022-09-23T01:23:55.310Z,99605.00
2022-09-23T01:24:55.305Z,99605.00
2022-09-23T01:25:55.378Z,99599.00
2022-09-23T01:26:55.350Z,99601.00
2022-09-23T01:27:55.319Z,99601.00
2022-09-23T01:28:55.340Z,99605.00
2022-09-23T01:29:55.368Z,99602.00
2022-09-23T01:30:55.493Z,99601.00
2022-09-23T01:31:55.429Z,99601.00
2022-09-23T01:32:55.441Z,99601.00
2022-09-23T01:33:55.417Z,99600.00
2022-09-23T01:34:55.436Z,99602.00
2022-09-23T01:35:55.466Z,99603.00
2022-09-23T01:36:55.478Z,99605.00
2022-09-23T01:37:56.034Z,99604.00
2022-09-23T01:38:55.498Z,99602.00
2022-09-23T01:39:55.501Z,99609.00
2022-09-23T01:40:55.509Z,99601.00
2022-09-23T01:41:55.556Z,99603.00
2022-09-23T01:42:55.561Z,99602.00
2022-09-23T01:43:55.576Z,99601.00
2022-09-23T01:44:55.620Z,99603.00
2022-09-23T01:45:55.635Z,99597.00
2022-09-23T01:46:55.652Z,99597.00
2022-09-23T01:47:55.984Z,99603.00
2022-09-23T01:48:55.679Z,99600.00
2022-09-23T01:49:55.693Z,99600.00
2022-09-23T01:50:55.722Z,99602.00
2022-09-23T01:51:55.741Z,99595.00
2022-09-23T01:52:55.768Z,99598.00
2022-09-23T01:53:55.795Z,99595.00
2022-09-23T01:54:55.822Z,99592.00
2022-09-23T01:55:55.841Z,99601.00
2022-09-23T01:56:55.855Z,99595.00
2022-09-23T01:57:55.920Z,99593.00
2022-09-23T01:58:55.863Z,99596.00
2022-09-23T01:59:55.887Z,99594.00
2022-09-23T02:00:55.940Z,99590.00
2022-09-23T02:01:56.034Z,99597.00
2022-09-23T02:02:55.896Z,99596.00
2022-09-23T02:03:56.098Z,99593.00
2022-09-23T02:04:55.867Z,99591.00
2022-09-23T02:05:55.913Z,99588.00
2022-09-23T02:06:55.924Z,99590.00
2022-09-23T02:07:55.952Z,99591.00
2022-09-23T02:08:55.969Z,99590.00
2022-09-23T02:09:55.958Z,99595.00
2022-09-23T02:10:56.000Z,99589.00
2022-09-23T02:11:58.686Z,99594.00
2022-09-23T02:12:56.051Z,99589.00
2022-09-23T02:13:56.047Z,99591.00
2022-09-23T02:14:56.056Z,99587.00
2022-09-23T02:15:56.051Z,99591.00
2022-09-23T02:16:56.199Z,99589.00
2022-09-23T02:17:56.114Z,99594.00
2022-09-23T02:18:56.106Z,99583.00
2022-09-23T02:19:56.120Z,99591.00
2022-09-23T02:20:56.141Z,99596.00
2022-09-23T02:21:56.172Z,99590.00
2022-09-23T02:22:56.190Z,99593.00
2022-09-23T02:23:56.231Z,99594.00
2022-09-23T02:24:56.221Z,99587.00
2022-09-23T02:25:56.259Z,99593.00
2022-09-23T02:26:56.269Z,99590.00
2022-09-23T02:27:56.287Z,99588.00
2022-09-23T02:28:56.560Z,99591.00
2022-09-23T02:29:56.331Z,99589.00
2022-09-23T02:30:56.332Z,99584.00
2022-09-23T02:31:56.424Z,99588.00
2022-09-23T02:32:56.365Z,99584.00
2022-09-23T02:33:56.389Z,99583.00
2022-09-23T02:34:56.417Z,99580.00
2022-09-23T02:35:56.444Z,99583.00
2022-09-23T02:36:56.468Z,99577.00
2022-09-23T02:37:56.519Z,99579.00
2022-09-23T02:38:57.740Z,99582.00
2022-09-23T02:39:56.534Z,99584.00
2022-09-23T02:40:56.553Z,99580.00
2022-09-23T02:41:56.568Z,99579.00
2022-09-23T02:42:56.580Z,99581.00
2022-09-23T02:43:56.588Z,99582.00
2022-09-23T02:44:56.607Z,99577.00
2022-09-23T02:45:56.672Z,99578.00
2022-09-23T02:46:56.570Z,99579.00
2022-09-23T02:47:56.597Z,99580.00
2022-09-23T02:48:56.615Z,99577.00
2022-09-23T02:49:56.628Z,99577.00
2022-09-23T02:50:56.650Z,99577.00
2022-09-23T02:51:56.673Z,99578.00
2022-09-23T02:52:56.714Z,99571.00
2022-09-23T02:53:56.733Z,99573.00
2022-09-23T02:54:56.743Z,99573.00
2022-09-23T02:55:56.763Z,99569.00
2022-09-23T02:56:56.790Z,99570.00
2022-09-23T02:57:56.816Z,99566.00
2022-09-23T02:58:56.856Z,99571.00
2022-09-23T02:59:56.881Z,99568.00
2022-09-23T03:00:56.968Z,99566.00
2022-09-23T03:01:57.067Z,99566.00
2022-09-23T03:02:57.154Z,99564.00
2022-09-23T03:03:56.929Z,99565.00
2022-09-23T03:04:56.953Z,99562.00
2022-09-23T03:05:56.971Z,99560.00
2022-09-23T03:06:57.016Z,99560.00
2022-09-23T03:07:56.988Z,99561.00
2022-09-23T03:08:57.001Z,99564.00
2022-09-23T03:09:57.031Z,99565.00
2022-09-23T03:10:57.045Z,99558.00
2022-09-23T03:11:57.069Z,99561.00
2022-09-23T03:12:57.113Z,99559.00
2022-09-23T03:13:57.080Z,99564.00
2022-09-23T03:14:57.092Z,99554.00
2022-09-23T03:15:57.109Z,99557.00
2022-09-23T03:16:57.124Z,99559.00
2022-09-23T03:17:57.187Z,99558.00
2022-09-23T03:18:57.151Z,99558.00
2022-09-23T03:19:57.161Z,99559.00
2022-09-23T03:20:57.195Z,99557.00
2022-09-23T03:21:57.226Z,99557.00
2022-09-23T03:22:57.244Z,99558.00
2022-09-23T03:23:57.224Z,99559.00
2022-09-23T03:24:57.220Z,99556.00
2022-09-23T03:25:57.255Z,99559.00
2022-09-23T03:26:57.269Z,99554.00
2022-09-23T03:27:57.303Z,99556.00
2022-09-23T03:28:57.291Z,99556.00
2022-09-23T03:29:57.326Z,99557.00
2022-09-23T03:30:57.349Z,99556.00
2022-09-23T03:31:57.439Z,99553.00
2022-09-23T03:32:57.364Z,99557.00
2022-09-23T03:33:57.388Z,99552.00
2022-09-23T03:34:57.382Z,99553.00
2022-09-23T03:35:57.438Z,99546.00
2022-09-23T03:36:57.440Z,99551.00
2022-09-23T03:37:57.416Z,99550.00
2022-09-23T03:38:57.428Z,99552.00
2022-09-23T03:39:57.460Z,99549.00
2022-09-23T03:40:57.441Z,99544.00
2022-09-23T03:41:57.483Z,99544.00
2022-09-23T03:42:57.473Z,99540.00
2022-09-23T03:43:57.486Z,99542.00
2022-09-23T03:44:57.518Z,99540.00
2022-09-23T03:45:57.722Z,99542.00
2022-09-23T03:46:57.560Z,99543.00
2022-09-23T03:47:57.583Z,99544.00
2022-09-23T03:48:57.591Z,99546.00
2022-09-23T03:49:57.655Z,99541.00
2022-09-23T03:50:57.625Z,99541.00
2022-09-23T03:51:57.620Z,99540.00
2022-09-23T03:52:57.635Z,99536.00
2022-09-23T03:53:57.652Z,99537.00
2022-09-23T03:54:57.695Z,99538.00
2022-09-23T03:55:57.706Z,99537.00
2022-09-23T03:56:57.756Z,99536.00
2022-09-23T03:57:57.779Z,99540.00
2022-09-23T03:58:57.796Z,99536.00
2022-09-23T03:59:57.818Z,99540.00
2022-09-23T04:00:57.887Z,99537.00
2022-09-23T04:01:57.901Z,99539.00
2022-09-23T04:02:57.884Z,99538.00
2022-09-23T04:03:57.840Z,99537.00
2022-09-23T04:04:57.839Z,99539.00
2022-09-23T04:05:57.985Z,99538.00
2022-09-23T04:06:57.913Z,99537.00
2022-09-23T04:07:57.922Z,99533.00
2022-09-23T04:08:57.952Z,99537.00
2022-09-23T04:09:57.965Z,99533.00
2022-09-23T04:10:58.000Z,99532.00
2022-09-23T04:11:58.018Z,99530.00
2022-09-23T04:12:58.047Z,99531.00
2022-09-23T04:13:58.074Z,99528.00
2022-09-23T04:14:58.108Z,99527.00
2022-09-23T04:15:58.157Z,99530.00
2022-09-23T04:16:58.131Z,99525.00
2022-09-23T04:17:58.142Z,99523.00
2022-09-23T04:18:58.157Z,99525.00
2022-09-23T04:19:58.178Z,99525.00
2022-09-23T04:20:58.196Z,99522.00
2022-09-23T04:21:58.237Z,99518.00
2022-09-23T04:22:58.252Z,99520.00
2022-09-23T04:23:58.216Z,99515.00
2022-09-23T04:24:58.244Z,99516.00
2022-09-23T04:25:58.261Z,99515.00
2022-09-23T04:26:58.305Z,99513.00
2022-09-23T04:27:58.276Z,99512.00
2022-09-23T04:28:58.285Z,99513.00
2022-09-23T04:29:58.344Z,99508.00
2022-09-23T04:30:58.290Z,99514.00
2022-09-23T04:31:58.352Z,99514.00
2022-09-23T04:32:58.343Z,99508.00
2022-09-23T04:33:58.375Z,99510.00
2022-09-23T04:34:58.360Z,99510.00
2022-09-23T04:35:58.373Z,99514.00
2022-09-23T04:36:58.399Z,99513.00
2022-09-23T04:37:58.439Z,99511.00
2022-09-23T04:38:58.503Z,99511.00
2022-09-23T04:39:58.453Z,99512.00
2022-09-23T04:40:58.432Z,99512.00
2022-09-23T04:41:58.466Z,99511.00
2022-09-23T04:42:58.470Z,99512.00
2022-09-23T04:43:58.523Z,99510.00
2022-09-23T04:44:58.532Z,99506.00
2022-09-23T04:45:58.514Z,99510.00
2022-09-23T04:46:58.648Z,99511.00
2022-09-23T04:47:58.558Z,99512.00
2022-09-23T04:48:58.577Z,99514.00
2022-09-23T04:49:59.984Z,99515.00
2022-09-23T04:50:58.621Z,99517.00
2022-09-23T04:51:58.642Z,99514.00
2022-09-23T04:52:58.677Z,99520.00
2022-09-23T04:53:58.675Z,99521.00
2022-09-23T04:54:58.673Z,99515.00
2022-09-23T04:55:58.684Z,99524.00
2022-09-23T04:56:58.690Z,99526.00
2022-09-23T04:57:58.731Z,99521.00
2022-09-23T04:58:58.696Z,99527.00
2022-09-23T04:59:58.726Z,99523.00
2022-09-23T05:02:24.791Z,99526.00
2022-09-23T05:03:24.699Z,99521.00
2022-09-23T05:04:24.727Z,99523.00
2022-09-23T05:05:24.753Z,99522.00
2022-09-23T05:06:24.773Z,99524.00
2022-09-23T05:07:24.801Z,99526.00
2022-09-23T05:08:24.863Z,99525.00
2022-09-23T05:09:24.892Z,99525.00
2022-09-23T05:10:24.909Z,99524.00
2022-09-23T05:11:24.879Z,99525.00
2022-09-23T05:12:24.910Z,99520.00
2022-09-23T05:13:24.932Z,99522.00
2022-09-23T05:14:24.909Z,99522.00
2022-09-23T05:15:24.932Z,99521.00
2022-09-23T05:16:24.987Z,99517.00
2022-09-23T05:17:24.929Z,99516.00
2022-09-23T05:18:24.947Z,99520.00
2022-09-23T05:19:24.973Z,99521.00
2022-09-23T05:20:24.960Z,99525.00
2022-09-23T05:21:24.989Z,99525.00
2022-09-23T05:22:24.969Z,99530.00
2022-09-23T05:23:25.006Z,99525.00
2022-09-23T05:24:25.021Z,99527.00
2022-09-23T05:25:25.070Z,99523.00
2022-09-23T05:26:25.081Z,99528.00
2022-09-23T05:27:25.057Z,99525.00
2022-09-23T05:28:25.084Z,99527.00
2022-09-23T05:29:25.101Z,99529.00
2022-09-23T05:30:25.112Z,99529.00
2022-09-23T05:31:25.190Z,99530.00
2022-09-23T05:32:25.133Z,99533.00
2022-09-23T05:33:25.146Z,99530.00
2022-09-23T05:34:25.140Z,99530.00
2022-09-23T05:35:25.175Z,99523.00
2022-09-23T05:36:25.199Z,99526.00
2022-09-23T05:37:25.198Z,99528.00
2022-09-23T05:38:25.264Z,99525.00
2022-09-23T05:39:25.240Z,99522.00
2022-09-23T05:40:25.332Z,99523.00
2022-09-23T05:41:25.299Z,99526.00
2022-09-23T05:42:25.297Z,99525.00
2022-09-23T05:43:25.255Z,99530.00
2022-09-23T05:44:25.301Z,99527.00
2022-09-23T05:45:26.910Z,99530.00
2022-09-23T05:46:25.313Z,99529.00
2022-09-23T05:47:25.286Z,99530.00
2022-09-23T05:48:25.321Z,99532.00
2022-09-23T05:49:37.907Z,99532.00
2022-09-23T05:50:25.357Z,99531.00
2022-09-23T05:51:28.848Z,99530.00
2022-09-23T05:52:25.398Z,99531.00
2022-09-23T05:53:25.416Z,99531.00
2022-09-23T05:54:25.450Z,99531.00
2022-09-23T05:55:25.431Z,99533.00
2022-09-23T05:56:25.463Z,99535.00
2022-09-23T05:57:25.498Z,99536.00
2022-09-23T05:58:25.512Z,99529.00
2022-09-23T05:59:25.502Z,99528.00
2022-09-23T06:00:25.512Z,99529.00
2022-09-23T06:01:25.602Z,99526.00
2022-09-23T06:02:25.588Z,99533.00
2022-09-23T06:03:25.669Z,99532.00
2022-09-23T06:04:25.600Z,99533.00
2022-09-23T06:05:25.716Z,99528.00
2022-09-23T06:06:25.633Z,99532.00
2022-09-23T06:07:25.599Z,99535.00
2022-09-23T06:08:25.603Z,99537.00
2022-09-23T06:09:25.614Z,99536.00
2022-09-23T06:10:26.441Z,99532.00
2022-09-23T06:11:25.693Z,99522.00
2022-09-23T06:12:25.621Z,99536.00
2022-09-23T06:13:25.681Z,99534.00
2022-09-23T06:14:25.770Z,99533.00
2022-09-23T06:15:25.743Z,99533.00
2022-09-23T06:16:25.815Z,99539.00
2022-09-23T06:17:25.733Z,99540.00
2022-09-23T06:18:25.794Z,99537.00
2022-09-23T06:19:25.752Z,99536.00
2022-09-23T06:20:25.735Z,99535.00
2022-09-23T06:21:25.711Z,99534.00
2022-09-23T06:22:25.760Z,99529.00
2022-09-23T06:23:26.718Z,99530.00
2022-09-23T06:24:30.861Z,99532.00
2022-09-23T06:25:25.820Z,99528.00
2022-09-23T06:26:25.786Z,99526.00
2022-09-23T06:27:25.824Z,99528.00
2022-09-23T06:28:25.868Z,99523.00
2022-09-23T06:29:25.862Z,99521.00
2022-09-23T06:30:25.877Z,99526.00
2022-09-23T06:31:25.968Z,99519.00
2022-09-23T06:32:25.954Z,99524.00
2022-09-23T06:33:35.074Z,99525.00
2022-09-23T06:34:25.905Z,99526.00
2022-09-23T06:35:27.657Z,99531.00
2022-09-23T06:36:41.204Z,99529.00
2022-09-23T06:37:25.916Z,99526.00
2022-09-23T06:38:25.951Z,99526.00
2022-09-23T06:39:26.142Z,99527.00
2022-09-23T06:40:26.042Z,99526.00
2022-09-23T06:41:26.012Z,99521.00
2022-09-23T06:42:26.038Z,99525.00
2022-09-23T06:43:26.066Z,99525.00
2022-09-23T06:44:26.089Z,99526.00
2022-09-23T06:45:26.090Z,99523.00
2022-09-23T06:46:26.147Z,99524.00
2022-09-23T06:47:26.103Z,99530.00
2022-09-23T06:48:26.125Z,99530.00
2022-09-23T06:49:26.168Z,99528.00
2022-09-23T06:50:26.312Z,99526.00
2022-09-23T06:51:26.201Z,99531.00
2022-09-23T06:52:26.192Z,99530.00
2022-09-23T06:53:26.172Z,99532.00
2022-09-23T06:54:26.225Z,99535.00
2022-09-23T06:55:26.229Z,99534.00
2022-09-23T06:56:26.210Z,99533.00
2022-09-23T06:57:26.225Z,99536.00
2022-09-23T06:58:26.258Z,99530.00
2022-09-23T06:59:26.260Z,99530.00
2022-09-23T07:00:26.297Z,99529.00
2022-09-23T07:01:26.437Z,99530.00
2022-09-23T07:02:26.344Z,99530.00
2022-09-23T07:03:26.226Z,99525.00
2022-09-23T07:04:29.369Z,99523.00
2022-09-23T07:05:26.314Z,99527.00
2022-09-23T07:06:26.267Z,99526.00
2022-09-23T07:07:26.329Z,99525.00
2022-09-23T07:08:26.344Z,99523.00
2022-09-23T07:09:26.319Z,99519.00
2022-09-23T07:10:26.345Z,99521.00
2022-09-23T07:11:26.374Z,99516.00
2022-09-23T07:12:26.394Z,99516.00
2022-09-23T07:13:26.365Z,99512.00
2022-09-23T07:14:26.471Z,99510.00
2022-09-23T07:15:26.424Z,99512.00
2022-09-23T07:16:26.559Z,99515.00
2022-09-23T07:17:26.580Z,99511.00
2022-09-23T07:18:26.483Z,99512.00
2022-09-23T07:19:26.505Z,99515.00
2022-09-23T07:20:26.602Z,99515.00
2022-09-23T07:21:26.468Z,99514.00
2022-09-23T07:22:26.480Z,99514.00
2022-09-23T07:23:26.494Z,99508.00
2022-09-23T07:24:26.519Z,99514.00
2022-09-23T07:25:26.596Z,99513.00
2022-09-23T07:26:26.539Z,99513.00
2022-09-23T07:27:26.522Z,99513.00
2022-09-23T07:28:26.537Z,99517.00
2022-09-23T07:29:26.553Z,99514.00
2022-09-23T07:30:26.646Z,99510.00
2022-09-23T07:31:38.577Z,99514.00
2022-09-23T07:32:27.583Z,99513.00
2022-09-23T07:33:32.299Z,99509.00
2022-09-23T07:34:26.666Z,99510.00
2022-09-23T07:35:26.636Z,99509.00
2022-09-23T07:36:26.667Z,99510.00
2022-09-23T07:37:26.678Z,99508.00
2022-09-23T07:38:26.715Z,99509.00
2022-09-23T07:39:26.723Z,99506.00
2022-09-23T07:40:26.796Z,99506.00
2022-09-23T07:41:26.777Z,99508.00
2022-09-23T07:42:26.763Z,99507.00
2022-09-23T07:43:26.779Z,99506.00
2022-09-23T07:44:26.823Z,99508.00
2022-09-23T07:45:26.796Z,99512.00
2022-09-23T07:46:26.915Z,99508.00
2022-09-23T07:47:26.806Z,99506.00
2022-09-23T07:48:30.658Z,99510.00
2022-09-23T07:49:26.828Z,99510.00
2022-09-23T07:50:26.822Z,99509.00
2022-09-23T07:51:26.847Z,99506.00
2022-09-23T07:52:26.878Z,99504.00
2022-09-23T07:53:26.861Z,99505.00
2022-09-23T07:54:26.864Z,99506.00
2022-09-23T07:55:26.884Z,99502.00
2022-09-23T07:56:26.907Z,99503.00
2022-09-23T07:57:26.965Z,99501.00
2022-09-23T07:58:26.929Z,99503.00
2022-09-23T07:59:26.932Z,99503.00
2022-09-23T08:00:26.955Z,99505.00
2022-09-23T08:01:27.043Z,99504.00
2022-09-23T08:02:27.001Z,99506.00
2022-09-23T08:03:26.966Z,99504.00
2022-09-23T08:04:26.996Z,99498.00
2022-09-23T08:05:27.063Z,99503.00
2022-09-23T08:06:27.016Z,99502.00
2022-09-23T08:07:27.031Z,99500.00
2022-09-23T08:08:27.062Z,99499.00
2022-09-23T08:09:27.119Z,99502.00
2022-09-23T08:10:27.061Z,99501.00
2022-09-23T08:11:27.048Z,99503.00
2022-09-23T08:12:27.072Z,99504.00
2022-09-23T08:13:27.078Z,99503.00
2022-09-23T08:14:27.106Z,99506.00
2022-09-23T08:15:27.215Z,99506.00
2022-09-23T08:16:27.289Z,99508.00
2022-09-23T08:17:27.306Z,99505.00
2022-09-23T08:18:27.170Z,99510.00
2022-09-23T08:19:27.175Z,99508.00
2022-09-23T08:20:27.195Z,99511.00
2022-09-23T08:21:27.220Z,99507.00
2022-09-23T08:22:27.178Z,99507.00
2022-09-23T08:23:27.178Z,99506.00
2022-09-23T08:24:27.207Z,99505.00
2022-09-23T08:25:27.263Z,99501.00
2022-09-23T08:26:27.229Z,99498.00
2022-09-23T08:27:27.246Z,99499.00
2022-09-23T08:28:27.301Z,99498.00
2022-09-23T08:29:27.258Z,99495.00
2022-09-23T08:30:27.268Z,99498.00
2022-09-23T08:31:27.354Z,99493.00
2022-09-23T08:32:27.317Z,99494.00
2022-09-23T08:33:27.373Z,99488.00
2022-09-23T08:34:27.359Z,99491.00
2022-09-23T08:35:27.326Z,99491.00
2022-09-23T08:36:27.350Z,99490.00
2022-09-23T08:37:27.370Z,99487.00
2022-09-23T08:38:27.338Z,99487.00
2022-09-23T08:39:27.332Z,99485.00
2022-09-23T08:40:27.430Z,99486.00
2022-09-23T08:41:27.365Z,99485.00
2022-09-23T08:42:27.397Z,99484.00
2022-09-23T08:43:27.410Z,99480.00
2022-09-23T08:44:27.404Z,99482.00
2022-09-23T08:45:27.417Z,99476.00
2022-09-23T08:46:27.492Z,99480.00
2022-09-23T08:47:27.467Z,99477.00
2022-09-23T08:48:27.452Z,99482.00
2022-09-23T08:49:27.426Z,99482.00
2022-09-23T08:50:27.459Z,99483.00
2022-09-23T08:51:27.474Z,99482.00
2022-09-23T08:52:27.500Z,99485.00
2022-09-23T08:53:28.423Z,99482.00
2022-09-23T08:54:27.526Z,99482.00
2022-09-23T08:55:27.539Z,99483.00
2022-09-23T08:56:27.567Z,99485.00
2022-09-23T08:57:27.590Z,99486.00
2022-09-23T08:58:27.705Z,99482.00
2022-09-23T08:59:27.615Z,99485.00
2022-09-23T09:00:27.653Z,99480.00
2022-09-23T09:01:27.716Z,99479.00
2022-09-23T09:02:27.678Z,99479.00
2022-09-23T09:03:27.620Z,99475.00
2022-09-23T09:04:27.598Z,99478.00
2022-09-23T09:05:27.612Z,99475.00
2022-09-23T09:06:27.614Z,99475.00
2022-09-23T09:07:42.995Z,99476.00
2022-09-23T09:08:27.636Z,99476.00
2022-09-23T09:09:27.654Z,99474.00
2022-09-23T09:10:27.662Z,99474.00
2022-09-23T09:11:27.690Z,99471.00
2022-09-23T09:12:27.697Z,99470.00
2022-09-23T09:13:27.741Z,99469.00
2022-09-23T09:14:27.722Z,99462.00
2022-09-23T09:15:27.809Z,99466.00
2022-09-23T09:16:55.458Z,99460.00
2022-09-23T09:17:31.691Z,99462.00
2022-09-23T09:18:27.820Z,99461.00
2022-09-23T09:19:27.836Z,99464.00
2022-09-23T09:20:27.814Z,99461.00
2022-09-23T09:21:27.864Z,99456.00
2022-09-23T09:22:27.895Z,99460.00
2022-09-23T09:23:27.960Z,99457.00
2022-09-23T09:24:27.892Z,99456.00
2022-09-23T09:25:32.072Z,99456.00
2022-09-23T09:26:27.878Z,99458.00
2022-09-23T09:27:27.899Z,99455.00
2022-09-23T09:28:27.933Z,99454.00
2022-09-23T09:29:35.280Z,99452.00
2022-09-23T09:30:27.961Z,99448.00
2022-09-23T09:31:28.081Z,99449.00
2022-09-23T09:32:28.009Z,99448.00
2022-09-23T09:33:28.031Z,99450.00
2022-09-23T09:34:28.011Z,99449.00
2022-09-23T09:35:28.058Z,99446.00
2022-09-23T09:36:30.654Z,99446.00
2022-09-23T09:37:28.088Z,99442.00
2022-09-23T09:38:28.129Z,99443.00
2022-09-23T09:39:28.115Z,99438.00
2022-09-23T09:40:28.198Z,99436.00
2022-09-23T09:41:28.168Z,99435.00
2022-09-23T09:42:28.164Z,99433.00
2022-09-23T09:43:28.240Z,99432.00
2022-09-23T09:44:28.192Z,99432.00
2022-09-23T09:45:28.185Z,99429.00
2022-09-23T09:46:28.260Z,99426.00
2022-09-23T09:47:28.253Z,99429.00
2022-09-23T09:48:28.246Z,99427.00
2022-09-23T09:49:28.227Z,99428.00
2022-09-23T09:50:28.213Z,99428.00
2022-09-23T09:51:28.245Z,99428.00
2022-09-23T09:52:28.251Z,99421.00
2022-09-23T09:53:28.202Z,99422.00
2022-09-23T09:54:28.252Z,99423.00
2022-09-23T09:55:28.203Z,99423.00
2022-09-23T09:56:28.234Z,99419.00
2022-09-23T09:57:32.178Z,99419.00
2022-09-23T09:58:28.274Z,99418.00
2022-09-23T09:59:28.270Z,99420.00
2022-09-23T10:00:28.320Z,99414.00
2022-09-23T10:01:28.371Z,99417.00
2022-09-23T10:02:28.277Z,99420.00
2022-09-23T10:03:28.330Z,99415.00
2022-09-23T10:04:28.385Z,99413.00
2022-09-23T10:05:28.314Z,99416.00
2022-09-23T10:06:28.343Z,99413.00
2022-09-23T10:07:28.357Z,99414.00
2022-09-23T10:08:28.393Z,99412.00
2022-09-23T10:09:28.396Z,99411.00
2022-09-23T10:10:32.936Z,99411.00
2022-09-23T10:11:28.391Z,99411.00
2022-09-23T10:12:28.404Z,99409.00
2022-09-23T10:13:28.429Z,99408.00
2022-09-23T10:14:28.387Z,99407.00
2022-09-23T10:15:28.413Z,99409.00
2022-09-23T10:16:28.466Z,99406.00
2022-09-23T10:17:28.428Z,99404.00
2022-09-23T10:18:28.405Z,99401.00
2022-09-23T10:19:28.428Z,99403.00
2022-09-23T10:20:28.436Z,99407.00
2022-09-23T10:21:28.433Z,99398.00
2022-09-23T10:22:28.460Z,99403.00
2022-09-23T10:23:28.486Z,99404.00
2022-09-23T10:24:28.518Z,99404.00
2022-09-23T10:25:28.501Z,99404.00
2022-09-23T10:26:28.528Z,99400.00
2022-09-23T10:27:28.527Z,99401.00
2022-09-23T10:28:28.571Z,99396.00
2022-09-23T10:29:28.609Z,99400.00
2022-09-23T10:30:28.630Z,99394.00
2022-09-23T10:31:28.585Z,99394.00
2022-09-23T10:32:28.595Z,99394.00
2022-09-23T10:33:28.726Z,99392.00
2022-09-23T10:34:28.633Z,99386.00
2022-09-23T10:35:28.614Z,99385.00
2022-09-23T10:36:28.646Z,99387.00
2022-09-23T10:37:28.625Z,99388.00
2022-09-23T10:38:28.681Z,99385.00
2022-09-23T10:39:28.683Z,99386.00
2022-09-23T10:40:28.703Z,99386.00
2022-09-23T10:41:29.038Z,99389.00
2022-09-23T10:42:28.708Z,99387.00
2022-09-23T10:43:28.746Z,99384.00
2022-09-23T10:44:28.697Z,99389.00
2022-09-23T10:45:28.778Z,99390.00
2022-09-23T10:46:28.830Z,99388.00
2022-09-23T10:47:28.754Z,99386.00
2022-09-23T10:48:28.725Z,99384.00
2022-09-23T10:49:28.785Z,99387.00
2022-09-23T10:50:28.756Z,99387.00
2022-09-23T10:51:31.770Z,99387.00
2022-09-23T10:52:28.739Z,99386.00
2022-09-23T10:53:28.757Z,99387.00
2022-09-23T10:54:28.810Z,99387.00
2022-09-23T10:55:28.777Z,99383.00
2022-09-23T10:56:28.868Z,99384.00
2022-09-23T10:57:35.976Z,99380.00
2022-09-23T10:58:28.854Z,99379.00
2022-09-23T10:59:28.875Z,99371.00
2022-09-23T11:00:28.862Z,99370.00
2022-09-23T11:01:28.910Z,99370.00
2022-09-23T11:02:28.874Z,99372.00
2022-09-23T11:03:28.849Z,99367.00
2022-09-23T11:04:28.997Z,99361.00
2022-09-23T11:05:28.898Z,99367.00
2022-09-23T11:06:28.911Z,99366.00
2022-09-23T11:07:28.908Z,99360.00
2022-09-23T11:08:28.942Z,99364.00
2022-09-23T11:09:29.493Z,99360.00
2022-09-23T11:10:45.369Z,99359.00
2022-09-23T11:11:29.020Z,99365.00
2022-09-23T11:12:29.030Z,99359.00
2022-09-23T11:13:29.081Z,99362.00
2022-09-23T11:14:29.069Z,99363.00
2022-09-23T11:15:29.110Z,99357.00
2022-09-23T11:16:29.206Z,99353.00
2022-09-23T11:17:29.134Z,99352.00
2022-09-23T11:18:29.139Z,99354.00
2022-09-23T11:19:29.211Z,99353.00
2022-09-23T11:20:29.168Z,99348.00
2022-09-23T11:21:29.220Z,99349.00
2022-09-23T11:22:29.247Z,99346.00
2022-09-23T11:23:29.238Z,99344.00
2022-09-23T11:24:29.263Z,99344.00
2022-09-23T11:25:29.285Z,99343.00
2022-09-23T11:26:33.141Z,99340.00
2022-09-23T11:27:29.373Z,99341.00
2022-09-23T11:28:29.386Z,99338.00
2022-09-23T11:29:29.396Z,99336.00
2022-09-23T11:30:29.544Z,99338.00
2022-09-23T11:31:29.412Z,99331.00
2022-09-23T11:32:29.452Z,99333.00
2022-09-23T11:33:29.503Z,99334.00
2022-09-23T11:34:29.468Z,99326.00
2022-09-23T11:35:29.455Z,99326.00
2022-09-23T11:36:29.473Z,99324.00
2022-09-23T11:37:29.525Z,99321.00
2022-09-23T11:38:29.505Z,99323.00
2022-09-23T11:39:29.509Z,99320.00
2022-09-23T11:40:29.593Z,99318.00
2022-09-23T11:41:29.526Z,99321.00
2022-09-23T11:42:29.541Z,99321.00
2022-09-23T11:43:29.572Z,99317.00
2022-09-23T11:44:29.609Z,99312.00
2022-09-23T11:45:29.667Z,99317.00
2022-09-23T11:46:29.738Z,99312.00